Luna, Arkansas
Current Conditions -  °F | °C
As of 2:53 PM on Thursday 27 Nov 2014 (Local Time) from KGLH Reporting Station
Few Clouds Few Clouds  
Wind Chill: 45°   Ceiling: Unl
Heat Index: 47°   Visibility: 9mi
Dew Point: 30°   Wind: 5mph
Humidity: 52%   Direction: NA
Pressure: 30.49"   Gusts: NA
Location:  33.3324°N, 91.3183°W
Report Text: KGLH 272053Z AUTO VRB04KT 9SM FEW035 08/M01 A3049 RMK AO2 SLP333 T00831011 55011
Loading
Personal Weather Stations






























Interactive Weather Map New forecast layout! Learn more

10-Day Weather Forecast

Advertisements
Track Severe Weather on mobile